sensor_id;sensor_type;location;lat;lon;timestamp;temperature;humidity
46926;DHT22;32667;48.248;-1.700;2023-12-20T00:00:52;9.50;79.80
46926;DHT22;32667;48.248;-1.700;2023-12-20T00:03:18;9.50;79.80
46926;DHT22;32667;48.248;-1.700;2023-12-20T00:05:44;9.50;79.90
46926;DHT22;32667;48.248;-1.700;2023-12-20T00:08:12;9.40;79.80
46926;DHT22;32667;48.248;-1.700;2023-12-20T00:10:38;9.40;79.90
46926;DHT22;32667;48.248;-1.700;2023-12-20T00:13:03;9.40;79.90
46926;DHT22;32667;48.248;-1.700;2023-12-20T00:15:29;9.30;79.90
46926;DHT22;32667;48.248;-1.700;2023-12-20T00:17:55;9.30;80.00
46926;DHT22;32667;48.248;-1.700;2023-12-20T00:20:21;9.20;80.00
46926;DHT22;32667;48.248;-1.700;2023-12-20T00:22:46;9.20;80.70
46926;DHT22;32667;48.248;-1.700;2023-12-20T00:25:12;9.10;80.10
46926;DHT22;32667;48.248;-1.700;2023-12-20T00:27:38;9.10;80.40
46926;DHT22;32667;48.248;-1.700;2023-12-20T00:30:04;9.10;80.10
46926;DHT22;32667;48.248;-1.700;2023-12-20T00:32:32;9.10;80.20
46926;DHT22;32667;48.248;-1.700;2023-12-20T00:34:58;9.00;80.20
46926;DHT22;32667;48.248;-1.700;2023-12-20T00:37:26;9.00;80.20
46926;DHT22;32667;48.248;-1.700;2023-12-20T00:39:54;9.00;80.30
46926;DHT22;32667;48.248;-1.700;2023-12-20T00:42:20;9.00;80.30
46926;DHT22;32667;48.248;-1.700;2023-12-20T00:44:45;9.00;80.30
46926;DHT22;32667;48.248;-1.700;2023-12-20T00:47:11;9.00;80.30
46926;DHT22;32667;48.248;-1.700;2023-12-20T00:49:39;9.00;80.30
46926;DHT22;32667;48.248;-1.700;2023-12-20T00:52:05;9.00;80.30
46926;DHT22;32667;48.248;-1.700;2023-12-20T00:54:31;9.00;80.20
46926;DHT22;32667;48.248;-1.700;2023-12-20T00:56:56;9.00;80.10
46926;DHT22;32667;48.248;-1.700;2023-12-20T00:59:22;8.90;80.10
46926;DHT22;32667;48.248;-1.700;2023-12-20T01:01:48;8.90;80.10
46926;DHT22;32667;48.248;-1.700;2023-12-20T01:04:13;8.90;80.20
46926;DHT22;32667;48.248;-1.700;2023-12-20T01:06:39;8.80;80.40
46926;DHT22;32667;48.248;-1.700;2023-12-20T01:09:07;8.80;80.40
46926;DHT22;32667;48.248;-1.700;2023-12-20T01:11:33;8.80;80.40
46926;DHT22;32667;48.248;-1.700;2023-12-20T01:13:59;8.80;80.40
46926;DHT22;32667;48.248;-1.700;2023-12-20T01:16:24;8.80;80.40
46926;DHT22;32667;48.248;-1.700;2023-12-20T01:18:50;8.90;80.40
46926;DHT22;32667;48.248;-1.700;2023-12-20T01:21:16;8.90;80.30
46926;DHT22;32667;48.248;-1.700;2023-12-20T01:23:42;8.90;80.30
46926;DHT22;32667;48.248;-1.700;2023-12-20T01:26:10;8.90;80.30
46926;DHT22;32667;48.248;-1.700;2023-12-20T01:28:35;8.90;80.10
46926;DHT22;32667;48.248;-1.700;2023-12-20T01:31:04;8.90;80.00
46926;DHT22;32667;48.248;-1.700;2023-12-20T01:33:29;8.90;80.00
46926;DHT22;32667;48.248;-1.700;2023-12-20T01:35:55;8.90;80.00
46926;DHT22;32667;48.248;-1.700;2023-12-20T01:38:23;8.90;80.10
46926;DHT22;32667;48.248;-1.700;2023-12-20T01:40:49;8.90;80.10
46926;DHT22;32667;48.248;-1.700;2023-12-20T01:43:15;8.90;80.10
46926;DHT22;32667;48.248;-1.700;2023-12-20T01:45:43;8.90;80.20
46926;DHT22;32667;48.248;-1.700;2023-12-20T01:48:09;8.80;80.10
46926;DHT22;32667;48.248;-1.700;2023-12-20T01:50:36;8.80;80.20
46926;DHT22;32667;48.248;-1.700;2023-12-20T01:53:04;8.80;80.20
46926;DHT22;32667;48.248;-1.700;2023-12-20T01:55:32;8.80;80.30
46926;DHT22;32667;48.248;-1.700;2023-12-20T01:58:05;8.80;80.20
46926;DHT22;32667;48.248;-1.700;2023-12-20T02:00:48;8.80;80.20
46926;DHT22;32667;48.248;-1.700;2023-12-20T02:03:15;8.80;80.20
46926;DHT22;32667;48.248;-1.700;2023-12-20T02:05:41;8.80;80.10
46926;DHT22;32667;48.248;-1.700;2023-12-20T02:08:07;8.80;80.80
46926;DHT22;32667;48.248;-1.700;2023-12-20T02:10:33;8.80;80.10
46926;DHT22;32667;48.248;-1.700;2023-12-20T02:12:59;8.80;80.10
46926;DHT22;32667;48.248;-1.700;2023-12-20T02:15:32;8.80;80.10
46926;DHT22;32667;48.248;-1.700;2023-12-20T02:17:59;8.90;80.10
46926;DHT22;32667;48.248;-1.700;2023-12-20T02:20:36;8.90;80.00
46926;DHT22;32667;48.248;-1.700;2023-12-20T02:23:01;8.90;80.00
46926;DHT22;32667;48.248;-1.700;2023-12-20T02:25:27;8.90;80.00
46926;DHT22;32667;48.248;-1.700;2023-12-20T02:27:53;8.90;79.90
46926;DHT22;32667;48.248;-1.700;2023-12-20T02:30:21;8.90;79.90
46926;DHT22;32667;48.248;-1.700;2023-12-20T02:32:49;8.90;79.90
46926;DHT22;32667;48.248;-1.700;2023-12-20T02:35:15;8.90;79.90
46926;DHT22;32667;48.248;-1.700;2023-12-20T02:37:41;8.90;79.90
46926;DHT22;32667;48.248;-1.700;2023-12-20T02:40:09;8.80;79.90
46926;DHT22;32667;48.248;-1.700;2023-12-20T02:42:36;8.80;80.00
46926;DHT22;32667;48.248;-1.700;2023-12-20T02:45:01;8.70;80.00
46926;DHT22;32667;48.248;-1.700;2023-12-20T02:47:27;8.70;80.10
46926;DHT22;32667;48.248;-1.700;2023-12-20T02:49:55;8.70;80.20
46926;DHT22;32667;48.248;-1.700;2023-12-20T02:52:22;8.60;80.20
46926;DHT22;32667;48.248;-1.700;2023-12-20T02:54:48;8.60;80.30
46926;DHT22;32667;48.248;-1.700;2023-12-20T02:57:13;8.50;80.30
46926;DHT22;32667;48.248;-1.700;2023-12-20T02:59:41;8.50;80.30
46926;DHT22;32667;48.248;-1.700;2023-12-20T03:02:09;8.50;80.40
46926;DHT22;32667;48.248;-1.700;2023-12-20T03:04:37;8.40;80.40
46926;DHT22;32667;48.248;-1.700;2023-12-20T03:07:03;8.40;80.40
46926;DHT22;32667;48.248;-1.700;2023-12-20T03:09:29;8.40;80.50
46926;DHT22;32667;48.248;-1.700;2023-12-20T03:11:55;8.40;80.50
46926;DHT22;32667;48.248;-1.700;2023-12-20T03:14:24;8.40;80.50
46926;DHT22;32667;48.248;-1.700;2023-12-20T03:16:50;8.40;80.50
46926;DHT22;32667;48.248;-1.700;2023-12-20T03:19:17;8.40;80.50
46926;DHT22;32667;48.248;-1.700;2023-12-20T03:21:45;8.40;80.50
46926;DHT22;32667;48.248;-1.700;2023-12-20T03:24:11;8.30;80.50
46926;DHT22;32667;48.248;-1.700;2023-12-20T03:26:44;8.30;80.50
46926;DHT22;32667;48.248;-1.700;2023-12-20T03:29:11;8.30;80.50
46926;DHT22;32667;48.248;-1.700;2023-12-20T03:31:39;8.20;80.50
46926;DHT22;32667;48.248;-1.700;2023-12-20T03:34:05;8.20;80.60
46926;DHT22;32667;48.248;-1.700;2023-12-20T03:36:31;8.20;80.60
46926;DHT22;32667;48.248;-1.700;2023-12-20T03:38:59;8.20;80.60
46926;DHT22;32667;48.248;-1.700;2023-12-20T03:41:25;8.10;80.60
46926;DHT22;32667;48.248;-1.700;2023-12-20T03:43:53;8.00;80.60
46926;DHT22;32667;48.248;-1.700;2023-12-20T03:46:19;8.00;80.60
46926;DHT22;32667;48.248;-1.700;2023-12-20T03:48:45;8.10;80.70
46926;DHT22;32667;48.248;-1.700;2023-12-20T03:51:10;8.00;80.60
46926;DHT22;32667;48.248;-1.700;2023-12-20T03:53:36;8.00;80.60
46926;DHT22;32667;48.248;-1.700;2023-12-20T03:56:02;8.00;80.60
46926;DHT22;32667;48.248;-1.700;2023-12-20T03:58:28;8.00;80.50
46926;DHT22;32667;48.248;-1.700;2023-12-20T04:00:54;8.00;80.60
46926;DHT22;32667;48.248;-1.700;2023-12-20T04:03:19;8.00;80.50
46926;DHT22;32667;48.248;-1.700;2023-12-20T04:05:45;8.10;80.50
46926;DHT22;32667;48.248;-1.700;2023-12-20T04:08:11;8.10;80.50
46926;DHT22;32667;48.248;-1.700;2023-12-20T04:10:39;8.10;80.40
46926;DHT22;32667;48.248;-1.700;2023-12-20T04:13:05;8.00;80.30
46926;DHT22;32667;48.248;-1.700;2023-12-20T04:15:31;8.10;80.40
46926;DHT22;32667;48.248;-1.700;2023-12-20T04:17:56;8.00;80.50
46926;DHT22;32667;48.248;-1.700;2023-12-20T04:20:24;8.00;80.40
46926;DHT22;32667;48.248;-1.700;2023-12-20T04:22:50;8.00;80.40
46926;DHT22;32667;48.248;-1.700;2023-12-20T04:25:16;8.10;80.50
46926;DHT22;32667;48.248;-1.700;2023-12-20T04:27:41;8.00;80.40
46926;DHT22;32667;48.248;-1.700;2023-12-20T04:30:07;8.10;80.40
46926;DHT22;32667;48.248;-1.700;2023-12-20T04:32:33;8.00;80.40
46926;DHT22;32667;48.248;-1.700;2023-12-20T04:35:01;8.00;80.40
46926;DHT22;32667;48.248;-1.700;2023-12-20T04:37:27;8.10;80.40
46926;DHT22;32667;48.248;-1.700;2023-12-20T04:39:53;8.10;80.30
46926;DHT22;32667;48.248;-1.700;2023-12-20T04:42:19;8.10;80.30
46926;DHT22;32667;48.248;-1.700;2023-12-20T04:44:46;8.10;80.30
46926;DHT22;32667;48.248;-1.700;2023-12-20T04:47:12;8.10;80.30
46926;DHT22;32667;48.248;-1.700;2023-12-20T04:49:38;8.10;80.30
46926;DHT22;32667;48.248;-1.700;2023-12-20T04:52:06;8.10;80.20
46926;DHT22;32667;48.248;-1.700;2023-12-20T04:54:32;8.10;80.20
46926;DHT22;32667;48.248;-1.700;2023-12-20T04:56:57;8.10;80.20
46926;DHT22;32667;48.248;-1.700;2023-12-20T04:59:25;8.10;80.10
46926;DHT22;32667;48.248;-1.700;2023-12-20T05:01:58;8.20;80.20
46926;DHT22;32667;48.248;-1.700;2023-12-20T05:04:24;8.20;80.10
46926;DHT22;32667;48.248;-1.700;2023-12-20T05:06:50;8.30;80.00
46926;DHT22;32667;48.248;-1.700;2023-12-20T05:09:16;8.30;80.00
46926;DHT22;32667;48.248;-1.700;2023-12-20T05:11:44;8.30;79.90
46926;DHT22;32667;48.248;-1.700;2023-12-20T05:14:17;8.30;79.90
46926;DHT22;32667;48.248;-1.700;2023-12-20T05:16:43;8.30;79.80
46926;DHT22;32667;48.248;-1.700;2023-12-20T05:19:11;8.30;79.80
46926;DHT22;32667;48.248;-1.700;2023-12-20T05:21:36;8.20;79.80
46926;DHT22;32667;48.248;-1.700;2023-12-20T05:24:02;8.20;79.90
46926;DHT22;32667;48.248;-1.700;2023-12-20T05:26:28;8.20;79.90
46926;DHT22;32667;48.248;-1.700;2023-12-20T05:28:55;8.20;80.50
46926;DHT22;32667;48.248;-1.700;2023-12-20T05:31:20;8.20;80.00
46926;DHT22;32667;48.248;-1.700;2023-12-20T05:33:46;8.20;80.00
46926;DHT22;32667;48.248;-1.700;2023-12-20T05:36:12;8.20;80.00
46926;DHT22;32667;48.248;-1.700;2023-12-20T05:38:40;8.20;80.00
46926;DHT22;32667;48.248;-1.700;2023-12-20T05:41:06;8.10;80.00
46926;DHT22;32667;48.248;-1.700;2023-12-20T05:43:31;8.10;80.00
46926;DHT22;32667;48.248;-1.700;2023-12-20T05:45:58;8.10;80.10
46926;DHT22;32667;48.248;-1.700;2023-12-20T05:48:31;8.10;80.20
46926;DHT22;32667;48.248;-1.700;2023-12-20T05:51:04;8.10;80.20
46926;DHT22;32667;48.248;-1.700;2023-12-20T05:53:33;8.00;80.20
46926;DHT22;32667;48.248;-1.700;2023-12-20T05:55:59;8.00;80.20
46926;DHT22;32667;48.248;-1.700;2023-12-20T05:58:25;8.00;80.20
46926;DHT22;32667;48.248;-1.700;2023-12-20T06:00:53;8.00;80.20
46926;DHT22;32667;48.248;-1.700;2023-12-20T06:03:18;8.10;80.20
46926;DHT22;32667;48.248;-1.700;2023-12-20T06:05:44;8.10;80.10
46926;DHT22;32667;48.248;-1.700;2023-12-20T06:08:10;8.10;80.00
46926;DHT22;32667;48.248;-1.700;2023-12-20T06:10:36;8.10;80.00
46926;DHT22;32667;48.248;-1.700;2023-12-20T06:13:01;8.20;80.00
46926;DHT22;32667;48.248;-1.700;2023-12-20T06:15:28;8.10;79.90
46926;DHT22;32667;48.248;-1.700;2023-12-20T06:17:56;8.10;79.90
46926;DHT22;32667;48.248;-1.700;2023-12-20T06:20:22;8.10;79.90
46926;DHT22;32667;48.248;-1.700;2023-12-20T06:22:48;8.00;80.00
46926;DHT22;32667;48.248;-1.700;2023-12-20T06:25:13;8.00;80.10
46926;DHT22;32667;48.248;-1.700;2023-12-20T06:27:42;8.00;80.10
46926;DHT22;32667;48.248;-1.700;2023-12-20T06:30:08;8.00;80.20
46926;DHT22;32667;48.248;-1.700;2023-12-20T06:32:35;7.90;80.20
46926;DHT22;32667;48.248;-1.700;2023-12-20T06:35:01;7.90;80.30
46926;DHT22;32667;48.248;-1.700;2023-12-20T06:37:27;7.80;80.30
46926;DHT22;32667;48.248;-1.700;2023-12-20T06:39:52;7.80;80.30
46926;DHT22;32667;48.248;-1.700;2023-12-20T06:42:22;7.80;80.40
46926;DHT22;32667;48.248;-1.700;2023-12-20T06:44:48;7.80;80.40
46926;DHT22;32667;48.248;-1.700;2023-12-20T06:47:14;7.70;81.00
46926;DHT22;32667;48.248;-1.700;2023-12-20T06:49:40;7.70;80.40
46926;DHT22;32667;48.248;-1.700;2023-12-20T06:52:06;7.70;80.40
46926;DHT22;32667;48.248;-1.700;2023-12-20T06:54:31;7.70;81.00
46926;DHT22;32667;48.248;-1.700;2023-12-20T06:56:59;7.70;80.40
46926;DHT22;32667;48.248;-1.700;2023-12-20T06:59:25;7.70;80.40
46926;DHT22;32667;48.248;-1.700;2023-12-20T07:01:51;7.70;80.40
46926;DHT22;32667;48.248;-1.700;2023-12-20T07:04:17;7.70;80.40
46926;DHT22;32667;48.248;-1.700;2023-12-20T07:06:48;7.70;80.40
46926;DHT22;32667;48.248;-1.700;2023-12-20T07:09:16;7.70;80.30
46926;DHT22;32667;48.248;-1.700;2023-12-20T07:11:41;7.70;80.30
46926;DHT22;32667;48.248;-1.700;2023-12-20T07:14:09;7.70;80.30
46926;DHT22;32667;48.248;-1.700;2023-12-20T07:16:37;7.70;80.20
46926;DHT22;32667;48.248;-1.700;2023-12-20T07:19:03;7.80;80.30
46926;DHT22;32667;48.248;-1.700;2023-12-20T07:21:29;7.70;80.20
46926;DHT22;32667;48.248;-1.700;2023-12-20T07:23:57;7.80;80.30
46926;DHT22;32667;48.248;-1.700;2023-12-20T07:26:23;7.80;80.20
46926;DHT22;32667;48.248;-1.700;2023-12-20T07:28:49;7.80;80.20
46926;DHT22;32667;48.248;-1.700;2023-12-20T07:31:18;7.80;80.20
46926;DHT22;32667;48.248;-1.700;2023-12-20T07:33:44;7.80;80.10
46926;DHT22;32667;48.248;-1.700;2023-12-20T07:36:12;7.80;80.10
46926;DHT22;32667;48.248;-1.700;2023-12-20T07:38:40;7.80;80.10
46926;DHT22;32667;48.248;-1.700;2023-12-20T07:41:10;7.80;80.20
46926;DHT22;32667;48.248;-1.700;2023-12-20T07:43:36;7.80;80.20
46926;DHT22;32667;48.248;-1.700;2023-12-20T07:46:05;7.80;80.10
46926;DHT22;32667;48.248;-1.700;2023-12-20T07:48:34;7.80;80.00
46926;DHT22;32667;48.248;-1.700;2023-12-20T07:51:00;7.70;80.00
46926;DHT22;32667;48.248;-1.700;2023-12-20T07:53:25;7.70;80.10
46926;DHT22;32667;48.248;-1.700;2023-12-20T07:55:51;7.70;80.10
46926;DHT22;32667;48.248;-1.700;2023-12-20T07:58:18;7.70;80.20
46926;DHT22;32667;48.248;-1.700;2023-12-20T08:00:44;7.70;80.20
46926;DHT22;32667;48.248;-1.700;2023-12-20T08:03:09;7.70;80.30
46926;DHT22;32667;48.248;-1.700;2023-12-20T08:05:38;7.70;80.30
46926;DHT22;32667;48.248;-1.700;2023-12-20T08:08:09;7.70;80.30
46926;DHT22;32667;48.248;-1.700;2023-12-20T08:10:35;7.70;80.20
46926;DHT22;32667;48.248;-1.700;2023-12-20T08:13:01;7.70;80.20
46926;DHT22;32667;48.248;-1.700;2023-12-20T08:15:26;7.70;80.20
46926;DHT22;32667;48.248;-1.700;2023-12-20T08:17:52;7.80;80.20
46926;DHT22;32667;48.248;-1.700;2023-12-20T08:20:18;7.80;80.20
46926;DHT22;32667;48.248;-1.700;2023-12-20T08:22:44;7.90;80.20
46926;DHT22;32667;48.248;-1.700;2023-12-20T08:25:10;7.90;80.10
46926;DHT22;32667;48.248;-1.700;2023-12-20T08:27:44;8.00;80.00
46926;DHT22;32667;48.248;-1.700;2023-12-20T08:30:12;8.00;80.00
46926;DHT22;32667;48.248;-1.700;2023-12-20T08:32:38;8.00;79.80
46926;DHT22;32667;48.248;-1.700;2023-12-20T08:35:04;8.00;79.80
46926;DHT22;32667;48.248;-1.700;2023-12-20T08:37:31;8.10;79.90
46926;DHT22;32667;48.248;-1.700;2023-12-20T08:39:57;8.00;79.80
46926;DHT22;32667;48.248;-1.700;2023-12-20T08:42:23;8.10;79.90
46926;DHT22;32667;48.248;-1.700;2023-12-20T08:44:58;8.00;79.80
46926;DHT22;32667;48.248;-1.700;2023-12-20T08:47:24;8.00;79.90
46926;DHT22;32667;48.248;-1.700;2023-12-20T08:49:52;8.10;80.10
46926;DHT22;32667;48.248;-1.700;2023-12-20T08:52:22;8.10;80.00
46926;DHT22;32667;48.248;-1.700;2023-12-20T08:54:49;8.20;80.50
46926;DHT22;32667;48.248;-1.700;2023-12-20T08:57:19;8.30;79.90
46926;DHT22;32667;48.248;-1.700;2023-12-20T08:59:48;8.40;79.70
46926;DHT22;32667;48.248;-1.700;2023-12-20T09:02:14;8.50;79.50
46926;DHT22;32667;48.248;-1.700;2023-12-20T09:04:40;8.60;79.30
46926;DHT22;32667;48.248;-1.700;2023-12-20T09:07:05;8.70;79.10
46926;DHT22;32667;48.248;-1.700;2023-12-20T09:09:33;8.80;79.00
46926;DHT22;32667;48.248;-1.700;2023-12-20T09:11:59;8.90;78.90
46926;DHT22;32667;48.248;-1.700;2023-12-20T09:14:24;8.90;78.90
46926;DHT22;32667;48.248;-1.700;2023-12-20T09:16:50;8.90;78.80
46926;DHT22;32667;48.248;-1.700;2023-12-20T09:19:17;8.90;78.80
46926;DHT22;32667;48.248;-1.700;2023-12-20T09:21:43;8.90;78.90
46926;DHT22;32667;48.248;-1.700;2023-12-20T09:24:09;9.00;78.90
46926;DHT22;32667;48.248;-1.700;2023-12-20T09:26:37;9.00;78.90
46926;DHT22;32667;48.248;-1.700;2023-12-20T09:29:05;9.10;78.80
46926;DHT22;32667;48.248;-1.700;2023-12-20T09:31:36;9.20;78.80
46926;DHT22;32667;48.248;-1.700;2023-12-20T09:34:02;9.20;78.60
46926;DHT22;32667;48.248;-1.700;2023-12-20T09:36:28;9.30;78.70
46926;DHT22;32667;48.248;-1.700;2023-12-20T09:38:54;9.30;78.60
46926;DHT22;32667;48.248;-1.700;2023-12-20T09:41:20;9.30;78.60
46926;DHT22;32667;48.248;-1.700;2023-12-20T09:43:45;9.50;78.60
46926;DHT22;32667;48.248;-1.700;2023-12-20T09:46:16;9.50;78.40
46926;DHT22;32667;48.248;-1.700;2023-12-20T09:48:46;9.60;78.30
46926;DHT22;32667;48.248;-1.700;2023-12-20T09:51:15;9.70;78.30
46926;DHT22;32667;48.248;-1.700;2023-12-20T09:53:44;9.70;78.20
46926;DHT22;32667;48.248;-1.700;2023-12-20T09:56:11;9.80;78.10
46926;DHT22;32667;48.248;-1.700;2023-12-20T09:58:37;9.90;78.00
46926;DHT22;32667;48.248;-1.700;2023-12-20T10:01:05;10.00;77.90
46926;DHT22;32667;48.248;-1.700;2023-12-20T10:03:34;10.10;77.80
46926;DHT22;32667;48.248;-1.700;2023-12-20T10:06:00;10.10;77.80
46926;DHT22;32667;48.248;-1.700;2023-12-20T10:08:26;10.20;77.70
46926;DHT22;32667;48.248;-1.700;2023-12-20T10:10:52;10.20;77.70
46926;DHT22;32667;48.248;-1.700;2023-12-20T10:13:18;10.20;77.60
46926;DHT22;32667;48.248;-1.700;2023-12-20T10:15:43;10.30;77.60
46926;DHT22;32667;48.248;-1.700;2023-12-20T10:18:11;10.30;77.50
46926;DHT22;32667;48.248;-1.700;2023-12-20T10:20:37;10.30;77.50
46926;DHT22;32667;48.248;-1.700;2023-12-20T10:23:03;10.30;77.60
46926;DHT22;32667;48.248;-1.700;2023-12-20T10:25:31;10.40;77.60
46926;DHT22;32667;48.248;-1.700;2023-12-20T10:28:13;10.40;77.70
46926;DHT22;32667;48.248;-1.700;2023-12-20T10:30:41;10.40;77.60
46926;DHT22;32667;48.248;-1.700;2023-12-20T10:33:07;10.40;77.60
46926;DHT22;32667;48.248;-1.700;2023-12-20T10:35:34;10.50;78.30
46926;DHT22;32667;48.248;-1.700;2023-12-20T10:38:03;10.50;77.60
46926;DHT22;32667;48.248;-1.700;2023-12-20T10:40:29;10.60;77.70
46926;DHT22;32667;48.248;-1.700;2023-12-20T10:43:02;10.60;77.60
46926;DHT22;32667;48.248;-1.700;2023-12-20T10:45:28;10.60;77.60
46926;DHT22;32667;48.248;-1.700;2023-12-20T10:47:58;10.70;77.60
46926;DHT22;32667;48.248;-1.700;2023-12-20T10:50:27;10.70;77.60
46926;DHT22;32667;48.248;-1.700;2023-12-20T10:52:57;10.80;77.50
46926;DHT22;32667;48.248;-1.700;2023-12-20T10:55:27;10.80;77.50
46926;DHT22;32667;48.248;-1.700;2023-12-20T10:58:07;10.90;77.50
46926;DHT22;32667;48.248;-1.700;2023-12-20T11:00:39;10.90;77.50
46926;DHT22;32667;48.248;-1.700;2023-12-20T11:03:09;10.90;77.40
46926;DHT22;32667;48.248;-1.700;2023-12-20T11:05:53;10.90;77.30
46926;DHT22;32667;48.248;-1.700;2023-12-20T11:08:35;11.00;77.40
46926;DHT22;32667;48.248;-1.700;2023-12-20T11:11:09;11.00;77.30
46926;DHT22;32667;48.248;-1.700;2023-12-20T11:14:03;11.10;77.30
46926;DHT22;32667;48.248;-1.700;2023-12-20T11:16:35;11.20;77.30
46926;DHT22;32667;48.248;-1.700;2023-12-20T11:19:07;11.20;77.10
46926;DHT22;32667;48.248;-1.700;2023-12-20T11:21:36;11.40;77.00
46926;DHT22;32667;48.248;-1.700;2023-12-20T11:24:04;11.50;76.90
46926;DHT22;32667;48.248;-1.700;2023-12-20T11:26:30;11.60;76.80
46926;DHT22;32667;48.248;-1.700;2023-12-20T11:31:56;11.70;76.60
46926;DHT22;32667;48.248;-1.700;2023-12-20T11:34:22;11.80;76.50
46926;DHT22;32667;48.248;-1.700;2023-12-20T11:37:00;11.80;76.50
46926;DHT22;32667;48.248;-1.700;2023-12-20T11:39:27;11.80;76.50
46926;DHT22;32667;48.248;-1.700;2023-12-20T11:41:56;11.90;76.50
46926;DHT22;32667;48.248;-1.700;2023-12-20T11:44:30;11.90;76.50
46926;DHT22;32667;48.248;-1.700;2023-12-20T11:46:56;12.00;76.60
46926;DHT22;32667;48.248;-1.700;2023-12-20T11:49:25;11.90;76.60
46926;DHT22;32667;48.248;-1.700;2023-12-20T11:51:54;12.00;76.70
46926;DHT22;32667;48.248;-1.700;2023-12-20T11:54:20;12.00;76.70
46926;DHT22;32667;48.248;-1.700;2023-12-20T11:56:48;12.00;76.70
46926;DHT22;32667;48.248;-1.700;2023-12-20T11:59:15;12.00;76.80
46926;DHT22;32667;48.248;-1.700;2023-12-20T12:01:48;12.10;76.80
46926;DHT22;32667;48.248;-1.700;2023-12-20T12:04:14;12.10;76.80
46926;DHT22;32667;48.248;-1.700;2023-12-20T12:06:40;12.10;76.70
46926;DHT22;32667;48.248;-1.700;2023-12-20T12:09:06;12.20;76.80
46926;DHT22;32667;48.248;-1.700;2023-12-20T12:11:33;12.20;76.70
46926;DHT22;32667;48.248;-1.700;2023-12-20T12:13:59;12.30;76.70
46926;DHT22;32667;48.248;-1.700;2023-12-20T12:16:25;12.30;76.70
46926;DHT22;32667;48.248;-1.700;2023-12-20T12:19:00;12.30;76.70
46926;DHT22;32667;48.248;-1.700;2023-12-20T12:21:26;12.20;76.70
46926;DHT22;32667;48.248;-1.700;2023-12-20T12:23:52;12.30;76.80
46926;DHT22;32667;48.248;-1.700;2023-12-20T12:26:18;12.30;76.80
46926;DHT22;32667;48.248;-1.700;2023-12-20T12:28:44;12.30;76.80
46926;DHT22;32667;48.248;-1.700;2023-12-20T12:31:14;12.30;76.80
46926;DHT22;32667;48.248;-1.700;2023-12-20T12:33:43;12.30;76.80
46926;DHT22;32667;48.248;-1.700;2023-12-20T12:36:10;12.30;76.80
46926;DHT22;32667;48.248;-1.700;2023-12-20T12:38:36;12.20;77.00
46926;DHT22;32667;48.248;-1.700;2023-12-20T12:41:04;12.20;77.10
46926;DHT22;32667;48.248;-1.700;2023-12-20T12:43:35;12.20;77.10
46926;DHT22;32667;48.248;-1.700;2023-12-20T12:46:03;12.10;77.20
46926;DHT22;32667;48.248;-1.700;2023-12-20T12:48:29;12.10;77.30
46926;DHT22;32667;48.248;-1.700;2023-12-20T12:50:54;12.10;77.30
46926;DHT22;32667;48.248;-1.700;2023-12-20T12:53:25;12.10;77.40
46926;DHT22;32667;48.248;-1.700;2023-12-20T12:55:52;12.10;77.40
46926;DHT22;32667;48.248;-1.700;2023-12-20T12:58:19;12.10;77.40
46926;DHT22;32667;48.248;-1.700;2023-12-20T13:00:44;12.00;77.30
46926;DHT22;32667;48.248;-1.700;2023-12-20T13:03:10;12.00;77.40
46926;DHT22;32667;48.248;-1.700;2023-12-20T13:05:36;12.10;77.60
46926;DHT22;32667;48.248;-1.700;2023-12-20T13:08:05;12.20;77.60
46926;DHT22;32667;48.248;-1.700;2023-12-20T13:10:32;12.30;77.40
46926;DHT22;32667;48.248;-1.700;2023-12-20T13:12:57;12.40;77.10
46926;DHT22;32667;48.248;-1.700;2023-12-20T13:15:25;12.40;77.00
46926;DHT22;32667;48.248;-1.700;2023-12-20T13:17:51;12.50;76.90
46926;DHT22;32667;48.248;-1.700;2023-12-20T13:20:17;12.50;76.80
46926;DHT22;32667;48.248;-1.700;2023-12-20T13:22:42;12.60;76.70
46926;DHT22;32667;48.248;-1.700;2023-12-20T13:25:08;12.60;76.70
46926;DHT22;32667;48.248;-1.700;2023-12-20T13:27:34;12.50;76.70
46926;DHT22;32667;48.248;-1.700;2023-12-20T13:30:00;12.60;76.90
46926;DHT22;32667;48.248;-1.700;2023-12-20T13:32:25;12.60;76.90
46926;DHT22;32667;48.248;-1.700;2023-12-20T13:34:51;12.60;77.00
46926;DHT22;32667;48.248;-1.700;2023-12-20T13:37:17;12.70;77.00
46926;DHT22;32667;48.248;-1.700;2023-12-20T13:39:43;12.70;76.70
46926;DHT22;32667;48.248;-1.700;2023-12-20T13:42:08;12.80;76.70
46926;DHT22;32667;48.248;-1.700;2023-12-20T13:44:34;12.70;76.80
46926;DHT22;32667;48.248;-1.700;2023-12-20T13:47:00;12.60;76.70
46926;DHT22;32667;48.248;-1.700;2023-12-20T13:49:26;12.60;77.00
46926;DHT22;32667;48.248;-1.700;2023-12-20T13:51:53;12.50;77.10
46926;DHT22;32667;48.248;-1.700;2023-12-20T13:54:20;12.40;77.70
46926;DHT22;32667;48.248;-1.700;2023-12-20T13:56:49;12.30;77.20
46926;DHT22;32667;48.248;-1.700;2023-12-20T13:59:17;12.30;77.50
46926;DHT22;32667;48.248;-1.700;2023-12-20T14:01:50;12.20;77.60
46926;DHT22;32667;48.248;-1.700;2023-12-20T14:04:16;12.20;77.70
46926;DHT22;32667;48.248;-1.700;2023-12-20T14:06:47;12.20;77.70
46926;DHT22;32667;48.248;-1.700;2023-12-20T14:09:12;12.20;77.80
46926;DHT22;32667;48.248;-1.700;2023-12-20T14:11:41;12.30;77.80
46926;DHT22;32667;48.248;-1.700;2023-12-20T14:14:09;12.30;77.60
46926;DHT22;32667;48.248;-1.700;2023-12-20T14:16:37;12.30;77.60
46926;DHT22;32667;48.248;-1.700;2023-12-20T14:19:04;12.30;77.50
46926;DHT22;32667;48.248;-1.700;2023-12-20T14:21:33;12.20;77.50
46926;DHT22;32667;48.248;-1.700;2023-12-20T14:23:58;12.20;77.70
46926;DHT22;32667;48.248;-1.700;2023-12-20T14:26:24;12.10;77.80
46926;DHT22;32667;48.248;-1.700;2023-12-20T14:28:52;12.10;77.80
46926;DHT22;32667;48.248;-1.700;2023-12-20T14:31:18;12.10;77.90
46926;DHT22;32667;48.248;-1.700;2023-12-20T14:33:46;12.00;77.90
46926;DHT22;32667;48.248;-1.700;2023-12-20T14:36:17;12.00;78.00
46926;DHT22;32667;48.248;-1.700;2023-12-20T14:38:44;12.00;78.00
46926;DHT22;32667;48.248;-1.700;2023-12-20T14:41:09;12.00;78.00
46926;DHT22;32667;48.248;-1.700;2023-12-20T14:43:35;12.00;78.00
46926;DHT22;32667;48.248;-1.700;2023-12-20T14:46:01;11.90;78.00
46926;DHT22;32667;48.248;-1.700;2023-12-20T14:48:27;11.90;78.20
46926;DHT22;32667;48.248;-1.700;2023-12-20T14:50:53;11.90;78.20
46926;DHT22;32667;48.248;-1.700;2023-12-20T14:53:21;11.80;78.20
46926;DHT22;32667;48.248;-1.700;2023-12-20T14:55:47;11.80;78.20
46926;DHT22;32667;48.248;-1.700;2023-12-20T14:58:13;11.80;78.20
46926;DHT22;32667;48.248;-1.700;2023-12-20T15:00:40;11.80;78.30
46926;DHT22;32667;48.248;-1.700;2023-12-20T15:03:05;11.80;78.20
46926;DHT22;32667;48.248;-1.700;2023-12-20T15:05:32;11.80;78.20
46926;DHT22;32667;48.248;-1.700;2023-12-20T15:07:58;11.80;78.20
46926;DHT22;32667;48.248;-1.700;2023-12-20T15:10:23;11.80;78.20
46926;DHT22;32667;48.248;-1.700;2023-12-20T15:12:49;11.80;78.20
46926;DHT22;32667;48.248;-1.700;2023-12-20T15:15:15;11.80;78.20
46926;DHT22;32667;48.248;-1.700;2023-12-20T15:17:43;11.80;78.20
46926;DHT22;32667;48.248;-1.700;2023-12-20T15:20:12;11.80;78.20
46926;DHT22;32667;48.248;-1.700;2023-12-20T15:22:37;11.80;78.20
46926;DHT22;32667;48.248;-1.700;2023-12-20T15:25:08;11.80;78.20
46926;DHT22;32667;48.248;-1.700;2023-12-20T15:27:35;11.80;78.20